Historyczne dane pomiarowe

Dodano dane terminowe – wersja testowa.

Dane z okresu 1951-2019

Wersja bazy: 1.34 [2019-03-16, lista zmian], aktualizacja planowana na 2019-04-15

Dane meteo z obszaru Polski uzyskane na podstawie danych udostępnionych przez Instytut Meteorologii i Gospodarki Wodnej – Państwowy Instytut Badawczy.

 

Wybierz Datę:    

       

TemperaturaWilgotnośćZachmurzenieWiatrCiśnienieWidzialnośćZjawiska
 Data    tng td wb rh cc ccl cl cm ch dir g1 g2 mslp ppp      
1999-08-08 00:00:00 19.4--- 16.8 17.785wxwxwxwx2wx--1004.51000.6 0.2---wxw1
1999-08-08 01:00:00 18.6--- 17.2 17.792wxwxwx1wx--1003.6 999.7----wxw1
1999-08-08 02:00:00 18.6--- 16.6 17.388wxwxwx2wx--1002.8 998.9----wx
1999-08-08 03:00:00 18.6--- 17.0 17.691wxwxwx3wx--1002.3 998.4----wxw1
1999-08-08 04:00:00 18.6--- 17.2 17.792wxwxwx2wx--1002.0 998.1----wx
1999-08-08 05:00:00 18.6--- 17.2 17.792wxwxwx2wx--1001.7 997.8----wx
1999-08-08 06:00:00 18.8--- 17.1 17.790wxwxwx2wx--1001.8 997.9 1.4---wxw1
1999-08-08 07:00:00 19.3--- 16.6 17.685wxwxwx2wx--1001.6 997.7----wx
1999-08-08 08:00:00 20.5--- 17.4 18.583wxwxwx2wx--1001.3 997.4----wx
1999-08-08 09:00:00 22.6--- 18.2 19.776wxwxwx3wx--1001.7 997.8----wx
1999-08-08 10:00:00 23.5--- 16.4 18.964wxwxwxwx2wx--1001.6 997.7----wx
1999-08-08 11:00:00 23.7--- 16.1 18.862wxwxwx1wx--1001.3 997.4----wx
1999-08-08 12:00:00 22.7--- 17.9 19.574wxwxwx3wx--1001.4 997.5 0.0---wx
1999-08-08 13:00:00 24.1--- 17.6 19.867wxwxwx2wx--1000.9 997.0----wx
1999-08-08 14:00:00 24.5--- 17.7 20.066wxwxwx3wx--1000.7 996.8----wx
1999-08-08 15:00:00 24.3--- 17.1 19.664wxwxwxwx2wx--1000.9 997.0----wx
1999-08-08 16:00:00 23.6--- 17.2 19.467wxwxwxwx2wx--1000.9 997.0----wx
1999-08-08 17:00:00 23.7--- 17.5 19.668wxwxwxwx2wx--1000.9 997.0----wx
1999-08-08 18:00:00 22.6--- 17.9 19.575wxwxwxwx1wx--1000.8 996.9 0.0---wx
1999-08-08 19:00:00 21.6--- 17.1 18.776wxwxwxwx1wx--1001.2 997.3----wx
1999-08-08 20:00:00 21.8--- 17.0 18.774wxwxwxwx1wx--1001.1 997.2----wx
1999-08-08 21:00:00 22.0--- 17.4 19.075wxwxwxwx3wx--1001.3 997.4----wx
1999-08-08 22:00:00 20.2--- 17.9 18.787wxwxwx3wx--1002.0 998.1----wx
1999-08-08 23:00:00 19.1--- 17.2 17.989wxwxwx2wx--1001.8 997.9----wx

 

Źródłem pochodzenia danych jest Instytut Meteorologii i Gospodarki Wodnej – Państwowy Instytut Badawczy. Dane Instytutu Meteorologii i Gospodarki Wodnej – Państwowego Instytutu Badawczego zostały przetworzone.

Dane źródłowe można odnaleźć na stronie https://dane.imgw.pl